Time;durP1;ratioP1;P1;durP2;ratioP2;P2;SDS_P1;SDS_P2;PMS_P1;PMS_P2;Temp;Humidity;BMP_temperature;BMP_pressure;BME280_temperature;BME280_humidity;BME280_pressure;Samples;Min_cycle;Max_cycle;Signal;HPM_P1;HPM_P2
2021/04/26 00:02:11;;;;;;;10.55;4.40;;;;;;;;;;5074277;28;20051;-61
2021/04/26 00:04:57;;;;;;;9.52;4.38;;;;;;;;;;5073109;28;20044;-61
2021/04/26 00:07:42;;;;;;;11.77;4.68;;;;;;;;;;5058188;28;20045;-61
2021/04/26 00:10:28;;;;;;;9.77;4.13;;;;;;;;;;5054938;28;20060;-61
2021/04/26 00:13:13;;;;;;;12.57;4.18;;;;;;;;;;5054023;28;20128;-60
2021/04/26 00:15:59;;;;;;;6.80;3.65;;;;;;;;;;5053871;28;20053;-59
2021/04/26 00:18:44;;;;;;;8.00;4.45;;;;;;;;;;5053828;28;20053;-61
2021/04/26 00:21:29;;;;;;;10.55;4.63;;;;;;;;;;5053546;28;20099;-59
2021/04/26 00:24:15;;;;;;;11.43;4.15;;;;;;;;;;5054754;28;20055;-59
2021/04/26 00:27:00;;;;;;;11.05;4.75;;;;;;;;;;5053474;28;20045;-59
2021/04/26 00:29:46;;;;;;;11.30;4.90;;;;;;;;;;5053486;28;20072;-61
2021/04/26 00:32:35;;;;;;;12.75;4.95;;;;;;;;;;5052896;28;20098;-59
2021/04/26 00:35:20;;;;;;;10.25;4.70;;;;;;;;;;5053449;28;20049;-61
2021/04/26 00:38:06;;;;;;;12.70;4.43;;;;;;;;;;5053469;28;20045;-59
2021/04/26 00:40:51;;;;;;;7.00;3.85;;;;;;;;;;5053131;28;20146;-61
2021/04/26 00:43:37;;;;;;;7.35;3.45;;;;;;;;;;5059868;28;20114;-61
2021/04/26 00:46:22;;;;;;;7.03;3.85;;;;;;;;;;5072518;28;20044;-61
2021/04/26 00:49:07;;;;;;;8.82;4.38;;;;;;;;;;5073650;28;20174;-62
2021/04/26 00:51:53;;;;;;;10.88;4.03;;;;;;;;;;5073018;28;20133;-61
2021/04/26 00:54:38;;;;;;;10.10;5.75;;;;;;;;;;5072544;28;20052;-62
2021/04/26 00:57:23;;;;;;;12.60;5.38;;;;;;;;;;5072995;28;20044;-61
2021/04/26 01:00:09;;;;;;;13.25;7.10;;;;;;;;;;5072551;28;20482;-61
2021/04/26 01:02:58;;;;;;;20.40;6.78;;;;;;;;;;5071993;28;20044;-62
2021/04/26 01:05:44;;;;;;;14.77;7.22;;;;;;;;;;5072754;28;20044;-62
2021/04/26 01:08:29;;;;;;;16.52;5.30;;;;;;;;;;5072635;28;20109;-62
2021/04/26 01:12:00;;;;;;;10.98;5.22;;;;;;;;;;5071484;28;20040;-61
2021/04/26 01:14:51;;;;;;;11.82;6.55;;;;;;;;;;5064596;28;20133;-62
2021/04/26 01:17:37;;;;;;;12.30;6.32;;;;;;;;;;5051708;28;20056;-62
2021/04/26 01:20:32;;;;;;;20.15;6.35;;;;;;;;;;5065289;28;20491;-62
2021/04/26 01:23:36;;;;;;;12.30;6.22;;;;;;;;;;5065513;28;20040;-62
2021/04/26 01:26:28;;;;;;;15.55;6.18;;;;;;;;;;5068238;28;20045;-61
2021/04/26 01:29:33;;;;;;;16.67;7.05;;;;;;;;;;5071331;28;20563;-62
2021/04/26 01:32:34;;;;;;;15.40;6.70;;;;;;;;;;5071402;28;20132;-60
2021/04/26 01:35:23;;;;;;;15.55;6.55;;;;;;;;;;5065096;28;20391;-62
2021/04/26 01:38:31;;;;;;;13.30;6.30;;;;;;;;;;5052422;28;20136;-61
2021/04/26 01:41:16;;;;;;;14.23;6.07;;;;;;;;;;5054572;28;20037;-61
2021/04/26 01:44:02;;;;;;;14.75;6.15;;;;;;;;;;5071458;28;20048;-62
2021/04/26 01:46:48;;;;;;;17.05;8.05;;;;;;;;;;5049732;28;20498;-62
2021/04/26 01:49:33;;;;;;;15.18;7.03;;;;;;;;;;5036527;28;20116;-61
2021/04/26 01:52:19;;;;;;;14.60;6.82;;;;;;;;;;5037146;28;20041;-61
2021/04/26 01:55:05;;;;;;;13.48;7.32;;;;;;;;;;5051069;28;20041;-62
2021/04/26 01:57:51;;;;;;;23.67;8.48;;;;;;;;;;5036924;28;20079;-62
2021/04/26 02:00:39;;;;;;;19.58;8.48;;;;;;;;;;5050638;28;20128;-62
2021/04/26 02:03:29;;;;;;;27.80;8.23;;;;;;;;;;5051009;28;20407;-61
2021/04/26 02:06:23;;;;;;;20.33;8.20;;;;;;;;;;5043090;28;20037;-61
2021/04/26 02:09:34;;;;;;;22.95;7.97;;;;;;;;;;5070861;28;20048;-62
2021/04/26 02:12:23;;;;;;;21.80;7.93;;;;;;;;;;5070984;28;20056;-62
2021/04/26 02:15:17;;;;;;;17.95;7.43;;;;;;;;;;5070928;28;20135;-62
2021/04/26 02:18:02;;;;;;;14.18;7.47;;;;;;;;;;5070743;28;20045;-61
2021/04/26 02:20:48;;;;;;;21.60;9.35;;;;;;;;;;5083895;28;20456;-62
2021/04/26 02:23:33;;;;;;;18.58;8.70;;;;;;;;;;5070987;28;20036;-62
2021/04/26 02:26:19;;;;;;;17.52;8.50;;;;;;;;;;5071828;28;20037;-61
2021/04/26 02:29:07;;;;;;;15.57;6.75;;;;;;;;;;5050791;28;20128;-62
2021/04/26 02:31:55;;;;;;;17.58;8.23;;;;;;;;;;5051539;28;20049;-61
2021/04/26 02:34:42;;;;;;;18.88;8.65;;;;;;;;;;5050808;28;20053;-61
2021/04/26 02:37:39;;;;;;;21.67;8.25;;;;;;;;;;5055939;28;20048;-62
2021/04/26 02:40:25;;;;;;;13.57;6.68;;;;;;;;;;5070333;28;20048;-61
2021/04/26 02:43:12;;;;;;;14.45;6.93;;;;;;;;;;5071641;28;20482;-62
2021/04/26 02:46:00;;;;;;;15.93;7.22;;;;;;;;;;5070572;28;20052;-61
2021/04/26 02:48:46;;;;;;;20.88;8.70;;;;;;;;;;5070197;28;20116;-62
2021/04/26 02:51:33;;;;;;;14.77;7.38;;;;;;;;;;5071450;28;20056;-62
2021/04/26 02:54:19;;;;;;;24.50;9.73;;;;;;;;;;5071556;28;20072;-62
2021/04/26 02:57:05;;;;;;;18.63;11.23;;;;;;;;;;5071460;28;20037;-62
2021/04/26 02:59:51;;;;;;;17.73;8.60;;;;;;;;;;5069878;28;20045;-61
2021/04/26 03:02:37;;;;;;;22.30;10.00;;;;;;;;;;5084586;28;20426;-60
2021/04/26 03:05:23;;;;;;;16.20;7.55;;;;;;;;;;5084388;28;20127;-61
2021/04/26 03:08:12;;;;;;;13.30;6.78;;;;;;;;;;5070934;28;20051;-62
2021/04/26 03:10:57;;;;;;;22.13;9.18;;;;;;;;;;5074815;28;20414;-62
2021/04/26 03:13:43;;;;;;;12.18;7.72;;;;;;;;;;5073761;28;20047;-61
2021/04/26 03:16:28;;;;;;;26.08;9.85;;;;;;;;;;5074966;28;20045;-62
2021/04/26 03:19:16;;;;;;;20.92;8.27;;;;;;;;;;5073585;28;20044;-60
2021/04/26 03:22:02;;;;;;;16.75;6.55;;;;;;;;;;5074944;28;20123;-61
2021/04/26 03:24:49;;;;;;;15.35;7.82;;;;;;;;;;5087837;28;20494;-62
2021/04/26 03:27:35;;;;;;;18.10;9.20;;;;;;;;;;5074687;28;20486;-61
2021/04/26 03:30:23;;;;;;;19.65;10.10;;;;;;;;;;5087439;28;20044;-62
2021/04/26 03:33:19;;;;;;;22.65;10.50;;;;;;;;;;5073757;28;20045;-62
2021/04/26 03:36:05;;;;;;;26.98;10.82;;;;;;;;;;5074717;28;20094;-61
2021/04/26 03:38:51;;;;;;;24.08;11.13;;;;;;;;;;5073561;28;20494;-62
2021/04/26 03:41:40;;;;;;;23.67;12.27;;;;;;;;;;5073219;28;20045;-61
2021/04/26 03:44:25;;;;;;;16.75;9.65;;;;;;;;;;5073415;28;20041;-62
2021/04/26 03:47:31;;;;;;;28.45;11.38;;;;;;;;;;5073244;28;20049;-61
2021/04/26 03:50:35;;;;;;;24.17;11.68;;;;;;;;;;5073895;28;20041;-62
2021/04/26 03:53:40;;;;;;;24.33;11.27;;;;;;;;;;5074218;28;20499;-61
2021/04/26 03:56:34;;;;;;;20.35;11.68;;;;;;;;;;5073282;28;20160;-62
2021/04/26 03:59:20;;;;;;;17.13;8.52;;;;;;;;;;5072995;28;20135;-61
2021/04/26 04:02:06;;;;;;;13.80;6.85;;;;;;;;;;5072822;28;20044;-61
2021/04/26 04:04:59;;;;;;;18.63;7.25;;;;;;;;;;5074094;28;20123;-61
2021/04/26 04:08:14;;;;;;;10.00;5.63;;;;;;;;;;5042193;28;20061;-62
2021/04/26 04:11:26;;;;;;;11.52;6.43;;;;;;;;;;5073418;28;20049;-62
2021/04/26 04:14:30;;;;;;;15.32;7.63;;;;;;;;;;5073856;28;20037;-62
2021/04/26 04:17:21;;;;;;;17.67;5.85;;;;;;;;;;5073755;28;20044;-62
2021/04/26 04:20:08;;;;;;;12.20;5.53;;;;;;;;;;5072429;28;20387;-62
2021/04/26 04:22:56;;;;;;;18.65;9.40;;;;;;;;;;5072850;28;20048;-61
2021/04/26 04:25:42;;;;;;;18.02;9.23;;;;;;;;;;5073733;28;20048;-62
2021/04/26 04:28:27;;;;;;;25.55;11.38;;;;;;;;;;5073387;28;20057;-61
2021/04/26 04:31:13;;;;;;;16.10;8.32;;;;;;;;;;5071879;28;20056;-61
2021/04/26 04:34:26;;;;;;;16.20;9.10;;;;;;;;;;5072513;28;20131;-63
2021/04/26 04:37:30;;;;;;;24.92;11.35;;;;;;;;;;5073518;28;20049;-62
2021/04/26 04:40:34;;;;;;;22.75;9.63;;;;;;;;;;5072996;28;20051;-61
2021/04/26 04:43:25;;;;;;;27.80;12.73;;;;;;;;;;5053277;28;20411;-62
2021/04/26 04:46:14;;;;;;;23.77;12.40;;;;;;;;;;5052277;28;20566;-62
2021/04/26 04:48:59;;;;;;;17.50;10.52;;;;;;;;;;5053211;28;20503;-60
2021/04/26 04:51:45;;;;;;;32.30;11.32;;;;;;;;;;5054220;28;20056;-63
2021/04/26 04:54:33;;;;;;;19.77;10.10;;;;;;;;;;5072234;28;20140;-60
2021/04/26 04:57:21;;;;;;;19.30;10.80;;;;;;;;;;5072890;28;20159;-62
2021/04/26 05:00:07;;;;;;;15.32;9.27;;;;;;;;;;5072716;28;20499;-61
2021/04/26 05:03:11;;;;;;;20.23;10.38;;;;;;;;;;5061721;28;20061;-62
2021/04/26 05:06:15;;;;;;;15.27;10.73;;;;;;;;;;5053008;28;20079;-61
2021/04/26 05:09:20;;;;;;;19.42;8.95;;;;;;;;;;5052666;28;20048;-61
2021/04/26 05:12:24;;;;;;;18.85;10.75;;;;;;;;;;5054140;28;20495;-61
2021/04/26 05:15:45;;;;;;;15.77;9.38;;;;;;;;;;5069464;28;20056;-62
2021/04/26 05:18:33;;;;;;;17.77;9.07;;;;;;;;;;5072456;28;20075;-61
2021/04/26 05:21:18;;;;;;;10.82;6.65;;;;;;;;;;5072410;28;20513;-62
2021/04/26 05:24:04;;;;;;;11.48;7.20;;;;;;;;;;5072829;28;20041;-62
2021/04/26 05:26:49;;;;;;;15.57;8.10;;;;;;;;;;5051396;28;20049;-61
2021/04/26 05:29:37;;;;;;;14.52;6.63;;;;;;;;;;5051246;28;20049;-61
2021/04/26 05:32:23;;;;;;;13.68;6.57;;;;;;;;;;5051049;28;20063;-62
2021/04/26 05:35:12;;;;;;;11.45;6.68;;;;;;;;;;5058375;28;20117;-62
2021/04/26 05:38:09;;;;;;;8.30;5.18;;;;;;;;;;5068323;28;20064;-61
2021/04/26 05:40:55;;;;;;;8.82;5.75;;;;;;;;;;5069865;28;20041;-61
2021/04/26 05:43:40;;;;;;;12.05;5.88;;;;;;;;;;5068547;28;20056;-62
2021/04/26 05:46:26;;;;;;;11.10;4.88;;;;;;;;;;5068702;28;20495;-62
2021/04/26 05:49:12;;;;;;;8.43;4.55;;;;;;;;;;5070980;28;20072;-62
2021/04/26 05:51:57;;;;;;;8.15;4.35;;;;;;;;;;5072078;28;20446;-62
2021/04/26 05:54:43;;;;;;;7.60;5.18;;;;;;;;;;5062889;28;20045;-62
2021/04/26 05:57:28;;;;;;;7.53;3.95;;;;;;;;;;5065264;28;20044;-62
2021/04/26 06:00:14;;;;;;;7.45;3.50;;;;;;;;;;5070786;28;20055;-61
2021/04/26 06:03:00;;;;;;;7.40;3.40;;;;;;;;;;5063358;28;20124;-62
2021/04/26 06:05:45;;;;;;;6.70;3.28;;;;;;;;;;5056712;28;20175;-62
2021/04/26 06:08:31;;;;;;;8.73;3.45;;;;;;;;;;5051783;28;20049;-62
2021/04/26 06:11:17;;;;;;;6.80;2.70;;;;;;;;;;5051723;28;20053;-60
2021/04/26 06:14:02;;;;;;;10.38;2.95;;;;;;;;;;5062928;28;20053;-61
2021/04/26 06:16:47;;;;;;;5.22;2.35;;;;;;;;;;5051673;28;20053;-62
2021/04/26 06:19:33;;;;;;;7.28;3.05;;;;;;;;;;5051781;28;20052;-62
2021/04/26 06:22:18;;;;;;;5.45;2.42;;;;;;;;;;5068008;28;20044;-61
2021/04/26 06:25:04;;;;;;;5.45;2.30;;;;;;;;;;5067938;28;20040;-61
2021/04/26 06:27:49;;;;;;;4.60;2.00;;;;;;;;;;5066537;28;20051;-62
2021/04/26 06:30:34;;;;;;;7.07;2.10;;;;;;;;;;5066941;28;20471;-62
2021/04/26 06:33:20;;;;;;;7.65;2.78;;;;;;;;;;5067848;28;20049;-62
2021/04/26 06:36:05;;;;;;;8.45;2.85;;;;;;;;;;5071135;28;20495;-62
2021/04/26 06:38:50;;;;;;;7.35;2.00;;;;;;;;;;5071674;28;20040;-62
2021/04/26 06:41:36;;;;;;;8.52;2.33;;;;;;;;;;5071239;28;20068;-61
2021/04/26 06:44:21;;;;;;;7.30;1.83;;;;;;;;;;5074302;28;20422;-62
2021/04/26 06:47:06;;;;;;;4.45;1.85;;;;;;;;;;5115186;22;20495;-62
2021/04/26 06:49:51;;;;;;;8.15;2.08;;;;;;;;;;5034906;28;20049;-62
2021/04/26 06:52:37;;;;;;;7.50;2.20;;;;;;;;;;5035481;28;20484;-61
2021/04/26 06:55:22;;;;;;;5.90;1.70;;;;;;;;;;5036767;28;20037;-62
2021/04/26 06:58:07;;;;;;;6.97;2.22;;;;;;;;;;5055289;28;20045;-61
2021/04/26 07:00:53;;;;;;;4.50;1.42;;;;;;;;;;5031160;28;20124;-64
2021/04/26 07:03:38;;;;;;;3.65;1.20;;;;;;;;;;5047700;28;20049;-63
2021/04/26 07:06:23;;;;;;;6.20;1.38;;;;;;;;;;5054906;28;20045;-63
2021/04/26 07:09:09;;;;;;;3.70;1.95;;;;;;;;;;5055184;28;20052;-64
2021/04/26 07:11:55;;;;;;;5.90;2.40;;;;;;;;;;5055069;28;20487;-64
2021/04/26 07:14:40;;;;;;;6.68;1.63;;;;;;;;;;5055817;28;20124;-66
2021/04/26 07:17:25;;;;;;;4.50;1.27;;;;;;;;;;5042341;28;20041;-65
2021/04/26 07:20:12;;;;;;;6.40;1.40;;;;;;;;;;5035216;28;20053;-65
2021/04/26 07:22:57;;;;;;;3.55;1.35;;;;;;;;;;5035051;28;20499;-65
2021/04/26 07:25:42;;;;;;;7.03;1.40;;;;;;;;;;5034810;28;20063;-65
2021/04/26 07:28:28;;;;;;;9.88;1.58;;;;;;;;;;5053287;28;20045;-65
2021/04/26 07:31:13;;;;;;;6.65;1.20;;;;;;;;;;5054528;28;20083;-64
2021/04/26 07:33:58;;;;;;;3.58;1.23;;;;;;;;;;5054759;28;20075;-65
2021/04/26 07:36:44;;;;;;;7.80;2.08;;;;;;;;;;5053044;28;20119;-65
2021/04/26 07:39:31;;;;;;;6.43;1.40;;;;;;;;;;5034376;28;20045;-65
2021/04/26 07:42:16;;;;;;;4.22;1.10;;;;;;;;;;5050679;28;20041;-65
2021/04/26 07:45:02;;;;;;;6.32;1.25;;;;;;;;;;5054705;28;20049;-65
2021/04/26 07:47:48;;;;;;;10.25;1.50;;;;;;;;;;5047411;28;20041;-65
2021/04/26 07:50:34;;;;;;;4.85;1.30;;;;;;;;;;5034111;28;20077;-65
2021/04/26 07:53:19;;;;;;;1.25;0.52;;;;;;;;;;5034507;28;20053;-65
2021/04/26 07:56:04;;;;;;;5.00;0.90;;;;;;;;;;5034451;28;20057;-65
2021/04/26 07:58:49;;;;;;;2.03;0.90;;;;;;;;;;5046540;28;20083;-65
2021/04/26 08:01:35;;;;;;;2.38;0.80;;;;;;;;;;5053989;28;20044;-65
2021/04/26 08:04:20;;;;;;;8.13;1.45;;;;;;;;;;5054114;28;20041;-65
2021/04/26 08:07:05;;;;;;;4.03;1.25;;;;;;;;;;5053825;28;20457;-65
2021/04/26 08:09:51;;;;;;;7.45;1.50;;;;;;;;;;5035488;28;20077;-65
2021/04/26 08:12:37;;;;;;;2.28;0.88;;;;;;;;;;5034115;28;20061;-65
2021/04/26 08:15:22;;;;;;;3.25;0.90;;;;;;;;;;5019050;28;20049;-65
2021/04/26 08:18:08;;;;;;;1.80;0.77;;;;;;;;;;5035088;28;20408;-65
2021/04/26 08:20:53;;;;;;;4.00;0.90;;;;;;;;;;5053529;28;20041;-64
2021/04/26 08:23:42;;;;;;;3.75;0.63;;;;;;;;;;5053739;28;20076;-65
2021/04/26 08:26:28;;;;;;;8.40;1.10;;;;;;;;;;5053704;28;20049;-65
2021/04/26 08:29:13;;;;;;;4.78;0.90;;;;;;;;;;5045889;28;20056;-65
2021/04/26 08:31:59;;;;;;;8.32;1.13;;;;;;;;;;5033354;28;20057;-65
2021/04/26 08:34:44;;;;;;;3.50;0.88;;;;;;;;;;5033303;28;20124;-65
2021/04/26 08:37:29;;;;;;;3.78;1.00;;;;;;;;;;5034423;28;20041;-65
2021/04/26 08:40:15;;;;;;;3.92;0.77;;;;;;;;;;5032955;28;20546;-65
2021/04/26 08:43:06;;;;;;;2.08;0.80;;;;;;;;;;5033390;28;20061;-65
2021/04/26 08:45:52;;;;;;;3.72;1.17;;;;;;;;;;5034600;28;20132;-65
2021/04/26 08:48:37;;;;;;;3.70;1.20;;;;;;;;;;5033147;28;20049;-65
2021/04/26 08:51:22;;;;;;;5.82;1.13;;;;;;;;;;5034278;28;20200;-65
2021/04/26 08:54:08;;;;;;;3.97;0.85;;;;;;;;;;5032336;28;20411;-65
2021/04/26 08:56:53;;;;;;;5.28;0.90;;;;;;;;;;5031545;28;20087;-65
2021/04/26 08:59:42;;;;;;;2.72;0.93;;;;;;;;;;5014101;28;20050;-66
2021/04/26 09:02:28;;;;;;;2.45;0.85;;;;;;;;;;5013295;28;20050;-65
2021/04/26 09:05:21;;;;;;;2.70;0.63;;;;;;;;;;5012661;28;20042;-65
2021/04/26 09:08:10;;;;;;;2.58;0.90;;;;;;;;;;5013185;28;20049;-65
2021/04/26 09:11:02;;;;;;;1.63;0.63;;;;;;;;;;5030078;28;20124;-65
2021/04/26 09:13:49;;;;;;;3.85;0.80;;;;;;;;;;5051247;28;20469;-65
2021/04/26 09:16:34;;;;;;;2.38;0.90;;;;;;;;;;5040533;28;20497;-65
2021/04/26 09:19:20;;;;;;;3.92;0.70;;;;;;;;;;5041792;28;20042;-63
2021/04/26 09:22:05;;;;;;;4.30;1.02;;;;;;;;;;5042143;28;20041;-65
2021/04/26 09:24:50;;;;;;;1.17;0.77;;;;;;;;;;5052478;28;20065;-65
2021/04/26 09:27:35;;;;;;;3.78;1.00;;;;;;;;;;5052019;28;20052;-62
2021/04/26 09:30:36;;;;;;;2.05;1.00;;;;;;;;;;5052101;28;20045;-62
2021/04/26 09:33:27;;;;;;;3.95;1.13;;;;;;;;;;5039162;28;20079;-62
2021/04/26 09:36:15;;;;;;;4.77;1.10;;;;;;;;;;5032177;28;20049;-62
2021/04/26 09:39:04;;;;;;;3.13;0.82;;;;;;;;;;5029785;28;20296;-62
2021/04/26 09:41:49;;;;;;;2.30;0.90;;;;;;;;;;5032199;28;20133;-62
2021/04/26 09:44:35;;;;;;;6.90;1.30;;;;;;;;;;5031779;28;20068;-62
2021/04/26 09:47:22;;;;;;;3.28;0.82;;;;;;;;;;5030599;28;20045;-62
2021/04/26 09:50:07;;;;;;;3.00;1.20;;;;;;;;;;5030957;28;20041;-62
2021/04/26 09:53:06;;;;;;;1.40;0.90;;;;;;;;;;5042840;28;20057;-62
2021/04/26 09:55:54;;;;;;;4.15;1.08;;;;;;;;;;5052004;28;20570;-62
2021/04/26 09:58:39;;;;;;;3.42;0.57;;;;;;;;;;5052099;28;20060;-62
2021/04/26 10:01:25;;;;;;;1.42;0.95;;;;;;;;;;5050626;28;20053;-62
2021/04/26 10:04:11;;;;;;;3.22;1.02;;;;;;;;;;5050385;28;20053;-62
2021/04/26 10:06:57;;;;;;;2.65;1.10;;;;;;;;;;5051890;28;20076;-62
2021/04/26 10:09:44;;;;;;;1.40;0.70;;;;;;;;;;5050713;28;20048;-62
2021/04/26 10:12:30;;;;;;;2.55;1.08;;;;;;;;;;5050066;28;20663;-62
2021/04/26 10:15:16;;;;;;;3.42;1.08;;;;;;;;;;5051824;28;20442;-62
2021/04/26 10:18:01;;;;;;;3.17;0.60;;;;;;;;;;5048625;28;20049;-62
2021/04/26 10:20:46;;;;;;;1.65;0.63;;;;;;;;;;5029666;28;20037;-62
2021/04/26 10:23:34;;;;;;;4.68;0.93;;;;;;;;;;5030678;28;20496;-62
2021/04/26 10:26:38;;;;;;;4.13;0.80;;;;;;;;;;5029057;28;20037;-62
2021/04/26 10:29:27;;;;;;;3.80;0.70;;;;;;;;;;5020857;28;20508;-62
2021/04/26 10:32:13;;;;;;;3.75;1.77;;;;;;;;;;5018632;28;20049;-62
2021/04/26 10:34:58;;;;;;;3.03;1.00;;;;;;;;;;4993494;28;20050;-62
2021/04/26 10:37:43;;;;;;;1.77;0.60;;;;;;;;;;4978663;28;20042;-62
2021/04/26 10:40:28;;;;;;;2.20;0.75;;;;;;;;;;4979152;28;20050;-62
2021/04/26 10:43:29;;;;;;;2.97;0.70;;;;;;;;;;4991870;28;20417;-62
2021/04/26 10:46:15;;;;;;;1.13;0.70;;;;;;;;;;4994291;28;20145;-62
2021/04/26 10:49:06;;;;;;;2.20;0.95;;;;;;;;;;4993740;28;20189;-62
2021/04/26 10:51:52;;;;;;;1.70;0.98;;;;;;;;;;4984870;28;20420;-64
2021/04/26 10:54:43;;;;;;;4.13;1.15;;;;;;;;;;4986962;28;20138;-64
2021/04/26 10:57:51;;;;;;;1.50;0.75;;;;;;;;;;4984889;28;20046;-64
2021/04/26 11:00:36;;;;;;;2.55;1.00;;;;;;;;;;4998092;28;20046;-64
2021/04/26 11:03:25;;;;;;;3.08;0.70;;;;;;;;;;4998818;28;20051;-65
2021/04/26 11:06:12;;;;;;;1.63;0.80;;;;;;;;;;5014637;28;20049;-64
2021/04/26 11:09:07;;;;;;;2.70;0.88;;;;;;;;;;5017738;28;20053;-64
2021/04/26 11:11:58;;;;;;;1.58;0.65;;;;;;;;;;5018221;28;20038;-64
2021/04/26 11:14:44;;;;;;;2.60;0.95;;;;;;;;;;5016464;28;20057;-64
2021/04/26 11:17:30;;;;;;;3.85;0.73;;;;;;;;;;4998414;28;20484;-64
2021/04/26 11:20:15;;;;;;;5.80;0.98;;;;;;;;;;4998333;28;20081;-64
2021/04/26 11:23:01;;;;;;;1.55;0.73;;;;;;;;;;4998248;28;20046;-64
2021/04/26 11:25:46;;;;;;;1.88;0.88;;;;;;;;;;5004915;28;20030;-65
2021/04/26 11:28:41;;;;;;;4.55;1.00;;;;;;;;;;5029821;28;20124;-64
2021/04/26 11:31:46;;;;;;;2.70;0.80;;;;;;;;;;5027598;28;20125;-64
2021/04/26 11:34:50;;;;;;;2.35;0.88;;;;;;;;;;5013950;28;20046;-65
2021/04/26 11:37:36;;;;;;;4.68;1.10;;;;;;;;;;5010307;28;20093;-64
2021/04/26 11:40:22;;;;;;;5.97;1.00;;;;;;;;;;5014659;28;20049;-64
2021/04/26 11:43:08;;;;;;;4.82;1.10;;;;;;;;;;5014805;28;20132;-64
2021/04/26 11:45:54;;;;;;;4.95;1.30;;;;;;;;;;4995433;28;20050;-64
2021/04/26 11:48:39;;;;;;;2.17;0.90;;;;;;;;;;4994141;28;20148;-64
2021/04/26 11:51:31;;;;;;;2.35;0.85;;;;;;;;;;4994741;28;20047;-65
2021/04/26 11:54:19;;;;;;;5.50;1.10;;;;;;;;;;4994849;28;20042;-64
2021/04/26 11:57:05;;;;;;;1.52;0.82;;;;;;;;;;4994591;28;20053;-65
2021/04/26 12:00:00;;;;;;;4.55;1.42;;;;;;;;;;4993839;28;20053;-64
2021/04/26 12:02:46;;;;;;;1.77;0.80;;;;;;;;;;4993995;28;20475;-64
2021/04/26 12:05:32;;;;;;;2.10;1.00;;;;;;;;;;4994691;28;20055;-64
2021/04/26 12:08:17;;;;;;;4.22;1.33;;;;;;;;;;5007276;28;20042;-64
2021/04/26 12:11:13;;;;;;;4.60;0.90;;;;;;;;;;5013650;28;20497;-64
2021/04/26 12:14:08;;;;;;;1.98;0.98;;;;;;;;;;5014097;28;20054;-64
2021/04/26 12:16:54;;;;;;;3.15;1.55;;;;;;;;;;5013645;28;20078;-64
2021/04/26 12:19:40;;;;;;;1.85;0.80;;;;;;;;;;4973412;28;20043;-64
2021/04/26 12:22:25;;;;;;;3.00;1.10;;;;;;;;;;4974875;28;20405;-64
2021/04/26 12:25:10;;;;;;;3.47;1.17;;;;;;;;;;4987725;28;20051;-65
2021/04/26 12:28:02;;;;;;;2.47;1.40;;;;;;;;;;4985743;28;20125;-64
2021/04/26 12:30:48;;;;;;;3.03;1.55;;;;;;;;;;5013625;28;20412;-66
2021/04/26 12:33:34;;;;;;;3.72;1.10;;;;;;;;;;5013672;28;20053;-65
2021/04/26 12:36:19;;;;;;;28.23;2.78;;;;;;;;;;5013511;28;20041;-65
2021/04/26 12:39:04;;;;;;;1.73;1.08;;;;;;;;;;5014366;28;20496;-65
2021/04/26 12:41:50;;;;;;;3.15;1.27;;;;;;;;;;4992652;28;20054;-65
2021/04/26 12:44:35;;;;;;;2.95;1.10;;;;;;;;;;4993933;28;20484;-65
2021/04/26 12:47:24;;;;;;;1.58;1.10;;;;;;;;;;4993799;28;20057;-65
2021/04/26 12:50:13;;;;;;;3.78;1.10;;;;;;;;;;5081704;22;20056;-63
2021/04/26 12:53:18;;;;;;;3.22;0.98;;;;;;;;;;5052309;28;20045;-63
2021/04/26 12:56:03;;;;;;;5.43;1.40;;;;;;;;;;5053022;28;20052;-63
2021/04/26 12:58:51;;;;;;;3.67;1.17;;;;;;;;;;5052776;28;20080;-63
2021/04/26 13:01:36;;;;;;;3.33;1.17;;;;;;;;;;5051321;28;20502;-63
2021/04/26 13:04:21;;;;;;;3.75;1.38;;;;;;;;;;5053072;28;20044;-63
2021/04/26 13:07:07;;;;;;;3.58;1.55;;;;;;;;;;5052945;28;20045;-62
2021/04/26 13:10:02;;;;;;;2.95;1.33;;;;;;;;;;5052417;28;20064;-63
2021/04/26 13:13:00;;;;;;;2.03;1.10;;;;;;;;;;5051943;28;20048;-62
2021/04/26 13:15:46;;;;;;;8.45;1.65;;;;;;;;;;5052924;28;20048;-62
2021/04/26 13:18:31;;;;;;;2.00;1.00;;;;;;;;;;5052638;28;20490;-62
2021/04/26 13:21:17;;;;;;;4.72;1.33;;;;;;;;;;5037209;28;20049;-63
2021/04/26 13:24:21;;;;;;;3.80;1.27;;;;;;;;;;5052789;28;20053;-64
2021/04/26 13:27:10;;;;;;;2.28;1.23;;;;;;;;;;5052673;28;20044;-63
2021/04/26 13:29:55;;;;;;;4.70;1.73;;;;;;;;;;5051873;28;20048;-63
2021/04/26 13:32:41;;;;;;;5.72;1.33;;;;;;;;;;5052027;28;20136;-62
2021/04/26 13:35:27;;;;;;;3.90;1.38;;;;;;;;;;5052434;28;20049;-63
2021/04/26 13:38:12;;;;;;;4.88;1.60;;;;;;;;;;5037290;28;20049;-63
2021/04/26 13:40:57;;;;;;;6.40;1.60;;;;;;;;;;5051522;28;20404;-63
2021/04/26 13:43:42;;;;;;;3.22;1.63;;;;;;;;;;5051161;28;20176;-63
2021/04/26 13:46:28;;;;;;;3.22;1.48;;;;;;;;;;5052022;28;20119;-63
2021/04/26 13:49:14;;;;;;;3.42;1.30;;;;;;;;;;5051544;28;20041;-62
2021/04/26 13:51:59;;;;;;;4.88;1.70;;;;;;;;;;5050252;28;20455;-63
2021/04/26 13:54:44;;;;;;;3.47;1.50;;;;;;;;;;5050077;28;20045;-62
2021/04/26 13:57:30;;;;;;;4.75;1.95;;;;;;;;;;5051131;28;20589;-63
2021/04/26 14:00:15;;;;;;;5.05;1.65;;;;;;;;;;5050945;28;20045;-63
2021/04/26 14:03:00;;;;;;;3.58;1.42;;;;;;;;;;5051874;28;20049;-62
2021/04/26 14:05:46;;;;;;;4.80;1.70;;;;;;;;;;5051817;28;20536;-62
2021/04/26 14:08:31;;;;;;;4.35;1.70;;;;;;;;;;5051654;28;20041;-63
2021/04/26 14:11:16;;;;;;;4.93;1.88;;;;;;;;;;5051025;28;20048;-63
2021/04/26 14:14:02;;;;;;;4.80;1.65;;;;;;;;;;5050900;28;20056;-62
2021/04/26 14:16:47;;;;;;;6.18;1.55;;;;;;;;;;5051776;28;20052;-62
2021/04/26 14:19:33;;;;;;;5.43;1.83;;;;;;;;;;5051369;28;20053;-62
2021/04/26 14:22:19;;;;;;;3.63;1.50;;;;;;;;;;5036221;28;20053;-62
2021/04/26 14:25:04;;;;;;;3.47;1.67;;;;;;;;;;5051520;28;20494;-63
2021/04/26 14:27:50;;;;;;;2.63;0.95;;;;;;;;;;5051603;28;20461;-63
2021/04/26 14:30:35;;;;;;;4.40;1.05;;;;;;;;;;5051129;28;20049;-63
2021/04/26 14:33:20;;;;;;;4.70;1.27;;;;;;;;;;5036111;28;20041;-62
2021/04/26 14:36:06;;;;;;;2.53;1.05;;;;;;;;;;5051262;28;20041;-62
2021/04/26 14:38:51;;;;;;;4.30;1.58;;;;;;;;;;5051147;28;20049;-62
2021/04/26 14:41:36;;;;;;;5.63;1.65;;;;;;;;;;5050822;28;20124;-62
2021/04/26 14:44:22;;;;;;;3.03;0.98;;;;;;;;;;5051729;28;20536;-62
2021/04/26 14:47:07;;;;;;;5.32;1.50;;;;;;;;;;5050781;28;20045;-62
2021/04/26 14:49:52;;;;;;;4.95;1.55;;;;;;;;;;5050607;28;20095;-62
2021/04/26 14:52:38;;;;;;;2.55;1.52;;;;;;;;;;5051554;28;20076;-63
2021/04/26 14:55:23;;;;;;;2.92;1.33;;;;;;;;;;5036185;28;20087;-63
2021/04/26 14:58:10;;;;;;;3.25;1.05;;;;;;;;;;5050875;28;20041;-62
2021/04/26 15:00:55;;;;;;;4.22;1.80;;;;;;;;;;5051192;28;20049;-62
2021/04/26 15:03:41;;;;;;;2.35;0.60;;;;;;;;;;5051297;28;20049;-62
2021/04/26 15:06:27;;;;;;;4.85;1.05;;;;;;;;;;5055065;28;20072;-62
2021/04/26 15:09:12;;;;;;;3.08;0.90;;;;;;;;;;5054786;28;20502;-61
2021/04/26 15:11:58;;;;;;;3.35;1.30;;;;;;;;;;5055106;28;20057;-61
2021/04/26 15:14:44;;;;;;;3.72;0.90;;;;;;;;;;5055115;28;20052;-61
2021/04/26 15:17:29;;;;;;;3.17;1.00;;;;;;;;;;5054628;28;20048;-62
2021/04/26 15:20:14;;;;;;;5.43;1.77;;;;;;;;;;5053741;28;20041;-61
2021/04/26 15:23:00;;;;;;;4.40;1.10;;;;;;;;;;5053480;28;20049;-62
2021/04/26 15:25:46;;;;;;;3.67;1.10;;;;;;;;;;5048633;28;20037;-61
2021/04/26 15:28:31;;;;;;;6.90;1.35;;;;;;;;;;5051295;28;20100;-61
2021/04/26 15:31:16;;;;;;;3.10;0.98;;;;;;;;;;5052531;28;20040;-61
2021/04/26 15:34:02;;;;;;;5.47;1.10;;;;;;;;;;5053345;28;20049;-61
2021/04/26 15:36:47;;;;;;;1.02;0.70;;;;;;;;;;5054587;28;20135;-61
2021/04/26 15:39:33;;;;;;;1.63;0.70;;;;;;;;;;5053248;28;20041;-61
2021/04/26 15:42:19;;;;;;;1.88;0.85;;;;;;;;;;5054085;28;20053;-62
2021/04/26 15:45:06;;;;;;;2.17;0.70;;;;;;;;;;5044390;28;20458;-62
2021/04/26 15:47:51;;;;;;;4.82;1.10;;;;;;;;;;5053407;28;20057;-62
2021/04/26 15:50:37;;;;;;;2.28;0.80;;;;;;;;;;5053923;28;20131;-61
2021/04/26 15:53:22;;;;;;;1.95;0.90;;;;;;;;;;5054262;28;20072;-61
2021/04/26 15:56:09;;;;;;;2.67;0.98;;;;;;;;;;5053980;28;20123;-61
2021/04/26 15:58:54;;;;;;;3.75;0.90;;;;;;;;;;5054102;28;20162;-62
2021/04/26 16:01:39;;;;;;;4.97;1.23;;;;;;;;;;5053627;28;20045;-62
2021/04/26 16:04:24;;;;;;;1.63;0.60;;;;;;;;;;5053568;28;20049;-62
2021/04/26 16:07:10;;;;;;;2.78;0.88;;;;;;;;;;5054065;28;20041;-62
2021/04/26 16:09:55;;;;;;;1.80;0.80;;;;;;;;;;5052798;28;20411;-61
2021/04/26 16:12:40;;;;;;;3.95;1.08;;;;;;;;;;5050952;28;20044;-61
2021/04/26 16:15:26;;;;;;;2.35;0.50;;;;;;;;;;5051533;28;20045;-62
2021/04/26 16:18:11;;;;;;;2.55;0.80;;;;;;;;;;5052188;28;20419;-61
2021/04/26 16:20:58;;;;;;;3.97;1.10;;;;;;;;;;5052894;28;20040;-62
2021/04/26 16:23:44;;;;;;;3.05;0.80;;;;;;;;;;5051745;28;20502;-62
2021/04/26 16:26:29;;;;;;;3.88;1.00;;;;;;;;;;5053711;28;20486;-62
2021/04/26 16:29:14;;;;;;;2.13;0.65;;;;;;;;;;5053236;28;20044;-62
2021/04/26 16:32:00;;;;;;;2.25;0.75;;;;;;;;;;5052394;28;20065;-61
2021/04/26 16:34:45;;;;;;;3.22;0.75;;;;;;;;;;5052374;28;20049;-61
2021/04/26 16:37:31;;;;;;;2.78;1.10;;;;;;;;;;5053549;28;20041;-62
2021/04/26 16:40:16;;;;;;;3.70;0.82;;;;;;;;;;5053341;28;20136;-61
2021/04/26 16:43:01;;;;;;;2.28;1.08;;;;;;;;;;5053528;28;20127;-62